createdAt,value
2019-03-26T00:00:20.103Z,81.70
2019-03-26T00:02:48.529Z,81.80
2019-03-26T00:05:16.975Z,81.90
2019-03-26T00:07:45.400Z,81.90
2019-03-26T00:10:13.834Z,81.90
2019-03-26T00:12:42.274Z,81.60
2019-03-26T00:15:10.694Z,80.70
2019-03-26T00:17:39.142Z,80.50
2019-03-26T00:20:09.279Z,79.60
2019-03-26T00:22:37.718Z,79.60
2019-03-26T00:25:07.723Z,79.70
2019-03-26T00:27:36.169Z,79.90
2019-03-26T00:30:05.964Z,79.80
2019-03-26T00:32:34.380Z,80.30
2019-03-26T00:35:02.963Z,79.80
2019-03-26T00:37:31.408Z,79.80
2019-03-26T00:39:59.849Z,80.00
2019-03-26T00:42:28.302Z,79.80
2019-03-26T00:44:56.743Z,80.10
2019-03-26T00:47:25.185Z,80.10
2019-03-26T00:49:53.658Z,80.30
2019-03-26T00:52:22.152Z,80.20
2019-03-26T00:54:50.593Z,80.10
2019-03-26T00:57:19.035Z,80.10
2019-03-26T00:59:47.465Z,79.90
2019-03-26T01:02:15.912Z,79.90
2019-03-26T01:04:44.422Z,79.80
2019-03-26T01:07:12.875Z,79.90
2019-03-26T01:09:42.531Z,80.00
2019-03-26T01:12:10.967Z,80.10
2019-03-26T01:14:39.408Z,80.20
2019-03-26T01:17:07.850Z,80.50
2019-03-26T01:19:36.303Z,80.80
2019-03-26T01:22:04.725Z,80.90
2019-03-26T01:24:33.173Z,81.00
2019-03-26T01:27:01.687Z,81.10
2019-03-26T01:29:30.616Z,81.30
2019-03-26T01:31:59.054Z,81.40
2019-03-26T01:34:27.508Z,81.50
2019-03-26T01:36:55.922Z,81.70
2019-03-26T01:39:24.377Z,81.80
2019-03-26T01:41:52.819Z,81.80
2019-03-26T01:44:22.790Z,81.80
2019-03-26T01:46:51.221Z,81.90
2019-03-26T01:49:19.655Z,81.80
2019-03-26T01:51:50.480Z,81.90
2019-03-26T01:54:21.851Z,82.00
2019-03-26T01:56:50.277Z,82.10
2019-03-26T01:59:18.796Z,82.00
2019-03-26T02:01:47.220Z,82.10
2019-03-26T02:04:15.657Z,82.10
2019-03-26T02:06:44.099Z,82.10
2019-03-26T02:09:12.560Z,81.90
2019-03-26T02:11:41.071Z,81.80
2019-03-26T02:14:09.523Z,81.70
2019-03-26T02:16:37.963Z,81.60
2019-03-26T02:19:09.092Z,81.70
2019-03-26T02:21:37.546Z,81.70
2019-03-26T02:24:05.981Z,81.60
2019-03-26T02:26:34.418Z,81.50
2019-03-26T02:29:03.194Z,81.70
2019-03-26T02:31:31.625Z,82.00
2019-03-26T02:34:00.076Z,82.00
2019-03-26T02:36:28.501Z,82.30
2019-03-26T02:38:56.937Z,82.30
2019-03-26T02:41:25.362Z,82.40
2019-03-26T02:43:54.174Z,82.60
2019-03-26T02:46:22.615Z,82.80
2019-03-26T02:48:51.069Z,83.10
2019-03-26T02:51:19.508Z,83.60
2019-03-26T02:53:47.927Z,83.80
2019-03-26T02:56:16.383Z,84.00
2019-03-26T02:58:44.814Z,84.10
2019-03-26T03:01:16.538Z,84.30
2019-03-26T03:03:44.440Z,84.40
2019-03-26T03:06:12.918Z,84.30
2019-03-26T03:08:41.799Z,84.30
2019-03-26T03:11:10.227Z,84.20
2019-03-26T03:13:38.676Z,84.00
2019-03-26T03:16:07.109Z,84.10
2019-03-26T03:18:35.573Z,84.30
2019-03-26T03:21:04.008Z,84.70
2019-03-26T03:23:32.456Z,84.70
2019-03-26T03:26:03.856Z,85.20
2019-03-26T03:28:32.293Z,85.40
2019-03-26T03:31:07.968Z,85.60
2019-03-26T03:33:36.405Z,85.60
2019-03-26T03:36:04.846Z,85.90
2019-03-26T03:38:33.271Z,86.10
2019-03-26T03:41:01.719Z,86.10
2019-03-26T03:43:30.168Z,86.60
2019-03-26T03:45:58.815Z,86.40
2019-03-26T03:48:27.607Z,86.70
2019-03-26T03:50:58.333Z,86.60
2019-03-26T03:53:27.333Z,86.60
2019-03-26T03:55:58.282Z,86.60
2019-03-26T03:58:28.867Z,87.00
2019-03-26T04:00:58.851Z,87.30
2019-03-26T04:03:27.288Z,86.70
2019-03-26T04:06:08.306Z,86.40
2019-03-26T04:08:25.896Z,86.40
2019-03-26T04:10:54.328Z,86.40
2019-03-26T04:13:22.779Z,86.30
2019-03-26T04:15:51.295Z,86.10
2019-03-26T04:18:21.291Z,86.00
2019-03-26T04:20:49.799Z,86.10
2019-03-26T04:23:18.311Z,86.10
2019-03-26T04:25:46.737Z,86.20
2019-03-26T04:28:15.191Z,86.10
2019-03-26T04:30:43.942Z,85.90
2019-03-26T04:33:12.374Z,86.00
2019-03-26T04:35:40.832Z,86.00
2019-03-26T04:38:09.262Z,85.90
2019-03-26T04:40:37.716Z,86.00
2019-03-26T04:43:06.163Z,86.10
2019-03-26T04:45:34.665Z,85.90
2019-03-26T04:48:03.102Z,85.80
2019-03-26T04:50:31.569Z,85.80
2019-03-26T04:53:00.061Z,85.90
2019-03-26T04:55:28.495Z,85.90
2019-03-26T04:57:57.005Z,86.30
2019-03-26T05:00:25.514Z,86.40
2019-03-26T05:02:53.947Z,86.60
2019-03-26T05:05:22.398Z,87.00
2019-03-26T05:07:50.823Z,87.10
2019-03-26T05:10:19.402Z,87.50
2019-03-26T05:12:47.838Z,88.10
2019-03-26T05:15:16.352Z,88.20
2019-03-26T05:17:44.784Z,88.30
2019-03-26T05:20:13.286Z,88.50
2019-03-26T05:22:41.750Z,88.50
2019-03-26T05:25:10.341Z,88.50
2019-03-26T05:27:45.233Z,88.60
2019-03-26T05:30:09.580Z,88.60
2019-03-26T05:32:38.028Z,88.80
2019-03-26T05:35:06.918Z,88.80
2019-03-26T05:37:35.440Z,88.80
2019-03-26T05:40:06.514Z,88.70
2019-03-26T05:42:34.965Z,88.80
2019-03-26T05:45:03.862Z,88.90
2019-03-26T05:47:32.294Z,89.50
2019-03-26T05:50:00.738Z,89.00
2019-03-26T05:52:29.166Z,89.00
2019-03-26T05:54:57.609Z,89.30
2019-03-26T05:57:26.055Z,89.30
2019-03-26T05:59:54.501Z,89.50
2019-03-26T06:02:22.942Z,89.50
2019-03-26T06:04:51.369Z,89.60
2019-03-26T06:07:19.879Z,89.90
2019-03-26T06:09:48.314Z,90.10
2019-03-26T06:12:16.755Z,90.00
2019-03-26T06:14:45.190Z,90.10
2019-03-26T06:17:13.727Z,90.20
2019-03-26T06:19:42.158Z,90.20
2019-03-26T06:22:10.587Z,90.40
2019-03-26T06:24:39.035Z,90.40
2019-03-26T06:27:07.479Z,90.30
2019-03-26T06:29:35.925Z,90.40
2019-03-26T06:32:04.353Z,90.40
2019-03-26T06:34:32.794Z,90.40
2019-03-26T06:37:01.230Z,90.40
2019-03-26T06:39:29.649Z,90.50
2019-03-26T06:41:58.089Z,90.40
2019-03-26T06:44:26.531Z,90.50
2019-03-26T06:46:54.980Z,90.50
2019-03-26T06:49:23.415Z,90.70
2019-03-26T06:51:51.841Z,90.90
2019-03-26T06:54:20.278Z,90.80
2019-03-26T06:56:48.727Z,90.90
2019-03-26T06:59:17.175Z,91.10
2019-03-26T07:01:45.775Z,91.20
2019-03-26T07:04:14.216Z,91.30
2019-03-26T07:06:42.658Z,91.20
2019-03-26T07:09:11.082Z,91.00
2019-03-26T07:11:39.551Z,91.00
2019-03-26T07:14:07.977Z,91.00
2019-03-26T07:16:36.494Z,90.70
2019-03-26T07:19:05.918Z,90.80
2019-03-26T07:21:34.376Z,90.90
2019-03-26T07:24:02.873Z,90.80
2019-03-26T07:26:31.299Z,90.90
2019-03-26T07:28:59.738Z,90.90
2019-03-26T07:31:28.191Z,90.90
2019-03-26T07:33:56.640Z,90.90
2019-03-26T07:36:25.082Z,90.80
2019-03-26T07:38:53.535Z,90.70
2019-03-26T07:41:22.009Z,90.70
2019-03-26T07:43:50.444Z,90.70
2019-03-26T07:46:18.883Z,90.70
2019-03-26T07:48:48.853Z,90.70
2019-03-26T07:51:17.300Z,90.80
2019-03-26T07:53:45.734Z,91.00
2019-03-26T07:56:14.173Z,91.40
2019-03-26T07:58:42.610Z,91.70
2019-03-26T08:01:11.068Z,91.80
2019-03-26T08:03:39.570Z,91.40
2019-03-26T08:06:07.999Z,90.80
2019-03-26T08:08:36.442Z,90.20
2019-03-26T08:11:04.897Z,89.60
2019-03-26T08:13:34.998Z,89.30
2019-03-26T08:16:03.622Z,89.20
2019-03-26T08:18:32.084Z,89.20
2019-03-26T08:21:00.537Z,88.80
2019-03-26T08:23:29.051Z,88.80
2019-03-26T08:25:57.478Z,88.80
2019-03-26T08:28:25.918Z,89.20
2019-03-26T08:30:54.476Z,88.90
2019-03-26T08:33:23.533Z,88.90
2019-03-26T08:35:52.007Z,88.90
2019-03-26T08:38:20.459Z,89.00
2019-03-26T08:40:48.882Z,89.30
2019-03-26T08:43:17.318Z,89.30
2019-03-26T08:45:45.746Z,89.10
2019-03-26T08:48:14.196Z,89.10
2019-03-26T08:50:42.632Z,89.70
2019-03-26T08:53:11.076Z,90.10
2019-03-26T08:55:40.892Z,90.40
2019-03-26T08:58:09.328Z,90.20
2019-03-26T09:00:37.775Z,90.20
2019-03-26T09:03:06.214Z,90.30
2019-03-26T09:05:34.673Z,90.50
2019-03-26T09:08:03.499Z,90.40
2019-03-26T09:10:32.005Z,90.70
2019-03-26T09:13:00.451Z,90.40
2019-03-26T09:15:28.892Z,90.10
2019-03-26T09:17:57.341Z,89.50
2019-03-26T09:20:25.775Z,89.50
2019-03-26T09:22:54.209Z,88.30
2019-03-26T09:25:22.647Z,89.10
2019-03-26T09:27:53.340Z,88.90
2019-03-26T09:30:21.258Z,87.80
2019-03-26T09:32:49.780Z,88.40
2019-03-26T09:35:18.213Z,89.30
2019-03-26T09:37:46.658Z,88.90
2019-03-26T09:40:15.168Z,88.50
2019-03-26T09:42:43.615Z,89.10
2019-03-26T09:45:13.023Z,89.20
2019-03-26T09:47:41.520Z,88.70
2019-03-26T09:50:11.401Z,87.50
2019-03-26T09:52:39.841Z,85.80
2019-03-26T09:55:08.911Z,85.40
2019-03-26T09:57:37.736Z,84.60
2019-03-26T10:00:11.510Z,84.20
2019-03-26T10:02:42.767Z,85.00
2019-03-26T10:05:10.790Z,84.00
2019-03-26T10:07:39.230Z,84.70
2019-03-26T10:10:08.352Z,85.10
2019-03-26T10:12:36.836Z,85.30
2019-03-26T10:15:06.902Z,84.90
2019-03-26T10:17:35.610Z,84.80
2019-03-26T10:20:06.659Z,85.40
2019-03-26T10:22:36.543Z,84.60
2019-03-26T10:25:10.915Z,84.90
2019-03-26T10:27:39.370Z,84.80
2019-03-26T10:30:08.738Z,82.90
2019-03-26T10:32:37.179Z,83.50
2019-03-26T10:35:06.672Z,83.00
2019-03-26T10:37:35.111Z,83.90
2019-03-26T10:40:07.172Z,83.10
2019-03-26T10:42:35.609Z,83.10
2019-03-26T10:45:06.098Z,83.30
2019-03-26T10:47:34.530Z,82.80
2019-03-26T10:50:03.129Z,81.40
2019-03-26T10:52:34.436Z,81.40
2019-03-26T10:55:01.756Z,81.80
2019-03-26T10:57:30.207Z,81.60
2019-03-26T10:59:58.637Z,79.70
2019-03-26T11:02:27.082Z,79.70
2019-03-26T11:04:55.527Z,79.20
2019-03-26T11:07:23.971Z,80.50
2019-03-26T11:09:52.416Z,81.20
2019-03-26T11:12:22.386Z,80.70
2019-03-26T11:14:50.825Z,80.30
2019-03-26T11:17:19.275Z,79.80
2019-03-26T11:19:47.710Z,78.90
2019-03-26T11:22:23.342Z,79.10
2019-03-26T11:24:51.789Z,78.70
2019-03-26T11:27:20.242Z,77.80
2019-03-26T11:29:48.681Z,78.10
2019-03-26T11:32:17.119Z,78.40
2019-03-26T11:34:45.541Z,79.10
2019-03-26T11:37:14.063Z,79.30
2019-03-26T11:39:42.503Z,79.40
2019-03-26T11:42:10.935Z,77.90
2019-03-26T11:44:39.406Z,78.30
2019-03-26T11:47:07.903Z,77.60
2019-03-26T11:49:36.343Z,77.50
2019-03-26T11:52:04.846Z,77.70
2019-03-26T11:54:33.306Z,77.50
2019-03-26T11:57:01.752Z,77.70
2019-03-26T11:59:30.282Z,78.10
2019-03-26T12:01:58.723Z,78.00
2019-03-26T12:04:27.192Z,78.10
2019-03-26T12:06:55.630Z,78.20
2019-03-26T12:09:24.085Z,77.90
2019-03-26T12:11:52.519Z,77.30
2019-03-26T12:14:20.999Z,77.00
2019-03-26T12:16:49.462Z,76.20
2019-03-26T12:19:17.905Z,75.40
2019-03-26T12:21:46.351Z,75.60
2019-03-26T12:24:14.797Z,75.90
2019-03-26T12:26:43.238Z,75.80
2019-03-26T12:29:11.674Z,76.40
2019-03-26T12:31:40.127Z,76.70
2019-03-26T12:34:08.554Z,76.20
2019-03-26T12:36:40.150Z,75.60
2019-03-26T12:39:07.639Z,75.00
2019-03-26T12:41:38.568Z,75.10
2019-03-26T12:44:06.252Z,75.90
2019-03-26T12:46:34.690Z,75.30
2019-03-26T12:49:03.151Z,74.90
2019-03-26T12:51:31.595Z,74.60
2019-03-26T12:54:02.415Z,74.20
2019-03-26T12:56:30.908Z,73.80
2019-03-26T12:58:59.354Z,74.50
2019-03-26T13:01:27.792Z,73.40
2019-03-26T13:03:57.086Z,73.30
2019-03-26T13:06:25.523Z,73.20
2019-03-26T13:08:53.962Z,72.90
2019-03-26T13:11:22.427Z,73.00
2019-03-26T13:13:50.937Z,73.00
2019-03-26T13:16:19.387Z,72.80
2019-03-26T13:18:47.840Z,72.90
2019-03-26T13:21:16.276Z,73.00
2019-03-26T13:23:44.727Z,72.70
2019-03-26T13:26:13.734Z,72.20
2019-03-26T13:28:42.188Z,72.30
2019-03-26T13:31:10.614Z,72.10
2019-03-26T13:33:39.072Z,71.90
2019-03-26T13:36:07.519Z,71.90
2019-03-26T13:38:35.965Z,71.60
2019-03-26T13:41:04.476Z,72.00
2019-03-26T13:43:32.909Z,72.40
2019-03-26T13:46:02.411Z,71.50
2019-03-26T13:48:30.851Z,72.00
2019-03-26T13:50:59.290Z,71.90
2019-03-26T13:53:27.734Z,72.10
2019-03-26T13:55:56.170Z,72.00
2019-03-26T13:58:24.617Z,72.20
2019-03-26T14:00:53.051Z,72.40
2019-03-26T14:03:21.486Z,71.80
2019-03-26T14:05:49.935Z,70.80
2019-03-26T14:08:18.394Z,71.30
2019-03-26T14:10:46.831Z,70.80
2019-03-26T14:13:15.261Z,70.00
2019-03-26T14:15:43.709Z,70.10
2019-03-26T14:18:12.161Z,69.90
2019-03-26T14:20:42.232Z,69.70
2019-03-26T14:23:10.672Z,70.10
2019-03-26T14:25:39.674Z,70.00
2019-03-26T14:28:08.122Z,70.40
2019-03-26T14:30:43.934Z,70.50
2019-03-26T14:33:12.524Z,70.50
2019-03-26T14:35:40.955Z,69.20
2019-03-26T14:38:09.474Z,70.00
2019-03-26T14:40:37.973Z,69.80
2019-03-26T14:43:10.921Z,69.50
2019-03-26T14:45:42.181Z,69.90
2019-03-26T14:48:09.691Z,69.70
2019-03-26T14:50:38.135Z,69.60
2019-03-26T14:53:06.579Z,69.70
2019-03-26T14:55:35.092Z,69.30
2019-03-26T14:58:03.523Z,68.50
2019-03-26T15:00:31.972Z,69.00
2019-03-26T15:03:00.401Z,69.40
2019-03-26T15:05:32.032Z,69.60
2019-03-26T15:08:00.470Z,69.30
2019-03-26T15:10:28.927Z,69.00
2019-03-26T15:12:57.372Z,68.50
2019-03-26T15:15:25.903Z,68.50
2019-03-26T15:17:54.356Z,68.50
2019-03-26T15:20:22.874Z,68.10
2019-03-26T15:22:51.324Z,68.40
2019-03-26T15:25:19.770Z,68.40
2019-03-26T15:27:49.854Z,68.60
2019-03-26T15:30:18.379Z,68.50
2019-03-26T15:32:46.820Z,68.70
2019-03-26T15:35:15.339Z,68.50
2019-03-26T15:37:44.735Z,67.90
2019-03-26T15:40:13.424Z,68.00
2019-03-26T15:42:41.854Z,68.50
2019-03-26T15:45:12.215Z,68.40
2019-03-26T15:47:40.660Z,69.00
2019-03-26T15:50:09.534Z,69.60
2019-03-26T15:52:37.975Z,70.00
2019-03-26T15:55:07.162Z,69.60
2019-03-26T15:57:35.607Z,69.70
2019-03-26T16:00:08.574Z,70.10
2019-03-26T16:02:37.022Z,70.20
2019-03-26T16:05:07.415Z,70.10
2019-03-26T16:07:35.861Z,69.70
2019-03-26T16:10:06.230Z,69.90
2019-03-26T16:12:40.932Z,69.60
2019-03-26T16:15:06.666Z,69.20
2019-03-26T16:17:36.858Z,69.60
2019-03-26T16:20:07.642Z,69.60
2019-03-26T16:22:36.100Z,69.80
2019-03-26T16:25:06.558Z,69.80
2019-03-26T16:27:35.001Z,70.00
2019-03-26T16:30:05.242Z,69.20
2019-03-26T16:32:33.707Z,69.70
2019-03-26T16:35:02.143Z,69.30
2019-03-26T16:37:30.568Z,69.70
2019-03-26T16:39:59.019Z,70.70
2019-03-26T16:42:27.465Z,70.10
2019-03-26T16:44:56.266Z,70.30
2019-03-26T16:47:24.727Z,70.30
2019-03-26T16:49:53.243Z,70.20
2019-03-26T16:52:21.697Z,70.50
2019-03-26T16:54:50.225Z,70.50
2019-03-26T16:57:18.663Z,70.10
2019-03-26T16:59:47.094Z,70.30
2019-03-26T17:02:15.615Z,70.80
2019-03-26T17:04:46.795Z,71.00
2019-03-26T17:07:14.682Z,71.10
2019-03-26T17:09:43.109Z,71.40
2019-03-26T17:12:11.568Z,71.70
2019-03-26T17:14:40.019Z,71.90
2019-03-26T17:17:08.547Z,72.10
2019-03-26T17:19:36.982Z,72.30
2019-03-26T17:22:05.423Z,72.50
2019-03-26T17:24:33.866Z,72.50
2019-03-26T17:27:02.315Z,72.30
2019-03-26T17:29:31.438Z,72.40
2019-03-26T17:31:59.884Z,73.20
2019-03-26T17:34:28.319Z,72.70
2019-03-26T17:36:56.768Z,72.90
2019-03-26T17:39:25.206Z,72.80
2019-03-26T17:41:53.663Z,73.10
2019-03-26T17:44:22.099Z,73.30
2019-03-26T17:46:50.534Z,73.60
2019-03-26T17:49:18.987Z,73.90
2019-03-26T17:51:47.419Z,74.00
2019-03-26T17:54:15.863Z,74.30
2019-03-26T17:56:47.243Z,74.50
2019-03-26T17:59:14.453Z,74.90
2019-03-26T18:01:42.894Z,75.30
2019-03-26T18:04:12.096Z,75.70
2019-03-26T18:06:40.534Z,76.00
2019-03-26T18:09:08.962Z,76.50
2019-03-26T18:11:37.414Z,76.30
2019-03-26T18:14:05.859Z,76.50
2019-03-26T18:16:34.308Z,76.70
2019-03-26T18:19:02.742Z,77.00
2019-03-26T18:21:31.184Z,77.30
2019-03-26T18:23:59.614Z,77.80
2019-03-26T18:26:28.158Z,78.10
2019-03-26T18:28:56.615Z,78.00
2019-03-26T18:31:25.107Z,78.20
2019-03-26T18:33:53.544Z,78.30
2019-03-26T18:36:21.978Z,78.40
2019-03-26T18:38:50.418Z,78.70
2019-03-26T18:41:18.845Z,78.90
2019-03-26T18:43:50.238Z,79.00
2019-03-26T18:46:18.727Z,79.40
2019-03-26T18:48:47.235Z,79.50
2019-03-26T18:51:15.667Z,79.70
2019-03-26T18:53:44.109Z,79.80
2019-03-26T18:56:12.562Z,80.00
2019-03-26T18:58:42.552Z,80.10
2019-03-26T19:01:10.989Z,80.20
2019-03-26T19:03:39.425Z,80.40
2019-03-26T19:06:07.873Z,80.40
2019-03-26T19:08:36.327Z,80.60
2019-03-26T19:11:04.773Z,80.80
2019-03-26T19:13:33.227Z,80.80
2019-03-26T19:16:07.715Z,80.90
2019-03-26T19:18:36.148Z,81.40
2019-03-26T19:21:06.226Z,81.30
2019-03-26T19:23:34.669Z,81.30
2019-03-26T19:26:03.119Z,81.50
2019-03-26T19:28:31.559Z,81.60
2019-03-26T19:31:00.035Z,81.70
2019-03-26T19:33:28.492Z,81.80
2019-03-26T19:35:56.939Z,81.80
2019-03-26T19:38:25.398Z,82.00
2019-03-26T19:40:53.852Z,82.20
2019-03-26T19:43:23.207Z,82.30
2019-03-26T19:45:53.187Z,82.40
2019-03-26T19:48:21.632Z,82.60
2019-03-26T19:50:50.079Z,82.70
2019-03-26T19:53:20.563Z,82.70
2019-03-26T19:55:48.999Z,82.80
2019-03-26T19:58:17.443Z,82.90
2019-03-26T20:00:45.908Z,83.00
2019-03-26T20:03:14.400Z,83.20
2019-03-26T20:05:42.849Z,83.20
2019-03-26T20:08:11.310Z,83.30
2019-03-26T20:10:39.758Z,83.50
2019-03-26T20:13:23.342Z,83.60
2019-03-26T20:15:40.923Z,83.70
2019-03-26T20:18:09.379Z,83.80
2019-03-26T20:20:38.926Z,83.90
2019-03-26T20:23:07.434Z,84.00
2019-03-26T20:25:35.878Z,84.20
2019-03-26T20:28:04.310Z,84.30
2019-03-26T20:30:32.758Z,84.30
2019-03-26T20:33:01.195Z,84.50
2019-03-26T20:35:29.640Z,84.60
2019-03-26T20:37:59.726Z,84.70
2019-03-26T20:40:28.165Z,84.90
2019-03-26T20:42:56.595Z,85.10
2019-03-26T20:45:25.038Z,85.10
2019-03-26T20:47:54.367Z,85.20
2019-03-26T20:50:24.624Z,85.40
2019-03-26T20:52:55.780Z,85.40
2019-03-26T20:55:30.134Z,85.50
2019-03-26T20:57:58.648Z,85.70
2019-03-26T21:00:38.900Z,85.80
2019-03-26T21:03:07.402Z,86.00
2019-03-26T21:05:35.993Z,85.80
2019-03-26T21:08:04.782Z,86.10
2019-03-26T21:10:33.576Z,86.00
2019-03-26T21:13:02.003Z,86.20
2019-03-26T21:15:30.449Z,86.30
2019-03-26T21:17:58.883Z,86.40
2019-03-26T21:20:27.334Z,86.50
2019-03-26T21:22:55.850Z,86.60
2019-03-26T21:25:24.308Z,86.60
2019-03-26T21:27:52.801Z,87.30
2019-03-26T21:30:21.384Z,86.80
2019-03-26T21:32:52.609Z,86.70
2019-03-26T21:35:21.077Z,86.60
2019-03-26T21:37:49.528Z,87.10
2019-03-26T21:40:18.831Z,87.00
2019-03-26T21:42:47.262Z,87.20
2019-03-26T21:45:16.070Z,87.20
2019-03-26T21:47:44.511Z,87.60
2019-03-26T21:50:13.697Z,87.60
2019-03-26T21:52:42.146Z,88.00
2019-03-26T21:55:13.417Z,88.00
2019-03-26T21:57:42.068Z,87.80
2019-03-26T22:00:11.246Z,88.20
2019-03-26T22:02:39.683Z,88.40
2019-03-26T22:05:09.069Z,88.70
2019-03-26T22:07:37.500Z,88.90
2019-03-26T22:10:07.077Z,89.00
2019-03-26T22:12:35.519Z,89.10
2019-03-26T22:15:06.586Z,89.20
2019-03-26T22:17:35.014Z,89.20
2019-03-26T22:20:04.004Z,89.40
2019-03-26T22:22:32.461Z,89.40
2019-03-26T22:25:00.882Z,89.60
2019-03-26T22:27:29.327Z,89.60
2019-03-26T22:29:57.773Z,89.50
2019-03-26T22:32:26.219Z,89.60
2019-03-26T22:34:54.661Z,89.50
2019-03-26T22:37:25.063Z,89.80
2019-03-26T22:39:53.512Z,89.60
2019-03-26T22:42:21.990Z,89.70
2019-03-26T22:44:50.421Z,90.00
2019-03-26T22:47:20.878Z,90.00
2019-03-26T22:49:49.343Z,90.00
2019-03-26T22:52:17.771Z,90.00
2019-03-26T22:54:46.214Z,90.00
2019-03-26T22:57:15.005Z,90.00
2019-03-26T22:59:43.442Z,90.10
2019-03-26T23:02:13.421Z,90.20
2019-03-26T23:04:41.887Z,90.50
2019-03-26T23:07:10.352Z,90.30
2019-03-26T23:09:39.219Z,90.40
2019-03-26T23:12:07.809Z,90.50
2019-03-26T23:14:45.187Z,90.40
2019-03-26T23:17:10.895Z,90.80
2019-03-26T23:19:39.402Z,90.50
2019-03-26T23:22:27.531Z,90.60
2019-03-26T23:24:56.005Z,90.70
2019-03-26T23:27:24.543Z,90.80
2019-03-26T23:29:53.002Z,90.70
2019-03-26T23:32:21.442Z,90.80
2019-03-26T23:34:51.255Z,91.00
2019-03-26T23:37:19.703Z,90.90
2019-03-26T23:39:48.143Z,91.00
2019-03-26T23:42:16.581Z,91.10
2019-03-26T23:44:57.498Z,91.00
2019-03-26T23:47:18.258Z,91.00
2019-03-26T23:49:46.569Z,90.90
2019-03-26T23:52:15.013Z,90.90
2019-03-26T23:54:43.469Z,91.00
2019-03-26T23:57:11.951Z,91.00
2019-03-26T23:59:40.434Z,91.10
